Time;durP1;ratioP1;P1;durP2;ratioP2;P2;SDS_P1;SDS_P2;PMS_P1;PMS_P2;Temp;Humidity;BMP_temperature;BMP_pressure;BME280_temperature;BME280_humidity;BME280_pressure;Samples;Min_cycle;Max_cycle;Signal;HPM_P1;HPM_P2
2021/07/02 00:00:27;;;;;;;6.90;5.63;;;;;;;17.22;62.18;96778.03;5093066;28;20260;-69
2021/07/02 00:02:53;;;;;;;11.37;5.60;;;;;;;17.26;61.90;96776.63;5092966;28;20220;-69
2021/07/02 00:05:19;;;;;;;6.87;5.97;;;;;;;17.15;62.06;96778.03;5092228;28;20714;-69
2021/07/02 00:07:44;;;;;;;9.20;5.67;;;;;;;17.19;62.22;96783.72;5092632;28;20177;-69
2021/07/02 00:10:11;;;;;;;8.53;5.90;;;;;;;17.14;62.35;96783.53;5092358;28;20198;-69
2021/07/02 00:12:36;;;;;;;8.90;6.47;;;;;;;17.07;62.41;96775.59;5092853;28;20180;-66
2021/07/02 00:15:03;;;;;;;9.37;5.90;;;;;;;16.88;63.31;96783.28;5092051;28;20958;-67
2021/07/02 00:17:29;;;;;;;7.60;6.07;;;;;;;16.94;62.93;96776.41;5092436;28;20182;-67
2021/07/02 00:19:54;;;;;;;8.53;6.10;;;;;;;16.84;63.16;96776.78;5092789;28;20438;-68
2021/07/02 00:22:20;;;;;;;6.40;5.37;;;;;;;16.85;63.74;96777.59;5092682;28;20625;-68
2021/07/02 00:24:45;;;;;;;9.73;5.90;;;;;;;16.76;63.72;96768.25;5090800;28;20216;-67
2021/07/02 00:27:11;;;;;;;9.10;6.70;;;;;;;16.76;63.76;96770.88;5090050;28;20189;-66
2021/07/02 00:29:37;;;;;;;9.27;6.00;;;;;;;16.76;63.86;96768.25;5092055;28;20186;-67
2021/07/02 00:32:03;;;;;;;7.80;6.10;;;;;;;16.79;63.59;96775.75;5091989;28;20260;-67
2021/07/02 00:34:29;;;;;;;11.43;6.40;;;;;;;16.80;63.81;96774.72;5091395;28;20192;-68
2021/07/02 00:36:54;;;;;;;7.67;6.60;;;;;;;16.69;64.12;96769.03;5091519;28;20416;-67
2021/07/02 00:39:20;;;;;;;6.00;5.33;;;;;;;16.86;63.46;96771.28;5091428;28;20202;-67
2021/07/02 00:41:45;;;;;;;8.30;6.23;;;;;;;16.76;63.95;96760.31;5090179;28;20206;-66
2021/07/02 00:44:11;;;;;;;8.20;6.10;;;;;;;16.30;65.20;96765.28;5090476;28;20268;-67
2021/07/02 00:46:36;;;;;;;10.97;6.60;;;;;;;16.37;65.43;96760.84;5091725;28;20270;-66
2021/07/02 00:49:02;;;;;;;8.30;7.17;;;;;;;16.33;65.39;96767.53;5091404;28;20225;-66
2021/07/02 00:51:30;;;;;;;22.43;7.17;;;;;;;16.13;66.27;96760.34;5091019;28;20176;-66
2021/07/02 00:53:56;;;;;;;10.50;6.50;;;;;;;16.18;66.07;96751.03;5091418;28;20331;-67
2021/07/02 00:56:21;;;;;;;7.50;5.77;;;;;;;16.21;66.21;96756.72;5089148;28;20456;-67
2021/07/02 00:58:47;;;;;;;7.23;6.23;;;;;;;16.12;66.16;96756.13;5091383;28;20428;-67
2021/07/02 01:01:16;;;;;;;10.63;6.40;;;;;;;16.16;65.90;96747.75;5091283;28;20205;-66
2021/07/02 01:03:47;;;;;;;8.70;6.43;;;;;;;16.21;65.69;96753.28;5091155;28;20663;-66
2021/07/02 01:06:14;;;;;;;10.20;6.60;;;;;;;16.06;66.63;96762.19;5089847;28;21005;-66
2021/07/02 01:08:43;;;;;;;8.37;5.87;;;;;;;16.00;66.46;96756.88;5091626;28;20428;-67
2021/07/02 01:11:10;;;;;;;9.00;6.33;;;;;;;16.02;66.43;96753.00;5091262;28;20422;-67
2021/07/02 01:13:35;;;;;;;9.73;6.27;;;;;;;16.07;66.33;96755.88;5091054;28;20476;-66
2021/07/02 01:16:01;;;;;;;11.27;6.63;;;;;;;16.11;66.33;96757.13;5090882;28;20452;-67
2021/07/02 01:18:26;;;;;;;9.90;6.70;;;;;;;16.07;66.23;96758.53;5091228;28;20197;-67
2021/07/02 01:20:53;;;;;;;8.27;6.33;;;;;;;16.18;65.90;96756.31;5091475;28;20185;-67
2021/07/02 01:23:20;;;;;;;7.20;6.00;;;;;;;16.04;66.17;96766.03;5091187;28;20243;-66
2021/07/02 01:25:46;;;;;;;7.73;6.07;;;;;;;16.22;65.52;96757.56;5091053;28;20497;-67
2021/07/02 01:28:13;;;;;;;7.87;6.03;;;;;;;16.24;65.44;96753.69;5089175;28;20985;-67
2021/07/02 01:30:39;;;;;;;8.50;6.47;;;;;;;16.23;65.50;96765.28;5091075;28;20420;-67
2021/07/02 01:33:04;;;;;;;13.93;5.80;;;;;;;16.31;65.28;96750.25;5091002;28;20419;-67
2021/07/02 01:35:30;;;;;;;8.43;5.90;;;;;;;16.39;65.00;96758.78;5089612;28;20497;-67
2021/07/02 01:37:55;;;;;;;8.57;5.80;;;;;;;16.19;65.54;96757.94;5091003;28;20181;-67
2021/07/02 01:40:21;;;;;;;7.47;5.50;;;;;;;16.13;65.46;96760.34;5097196;28;20600;-67
2021/07/02 01:42:47;;;;;;;10.50;6.87;;;;;;;16.01;66.00;96767.22;5091144;28;20206;-67
2021/07/02 01:45:12;;;;;;;8.03;6.40;;;;;;;16.03;65.92;96759.91;5090646;28;20872;-67
2021/07/02 01:47:38;;;;;;;10.83;6.13;;;;;;;15.99;66.07;96758.72;5089852;28;20181;-66
2021/07/02 01:50:05;;;;;;;7.60;5.90;;;;;;;15.88;66.40;96760.06;5089522;28;20182;-67
2021/07/02 01:52:31;;;;;;;10.20;7.10;;;;;;;15.74;66.99;96763.63;5091049;28;20233;-67
2021/07/02 01:54:56;;;;;;;9.83;6.37;;;;;;;16.05;65.74;96762.38;5091799;28;20439;-67
2021/07/02 01:57:24;;;;;;;8.07;6.17;;;;;;;16.03;65.68;96767.84;5092496;28;20181;-67
2021/07/02 01:59:50;;;;;;;8.20;6.50;;;;;;;16.08;65.85;96773.38;5094794;28;20170;-67
2021/07/02 02:02:15;;;;;;;14.53;6.77;;;;;;;15.83;66.55;96770.38;5094710;28;20447;-67
2021/07/02 02:04:41;;;;;;;7.97;6.03;;;;;;;15.75;66.74;96766.06;5094551;28;20419;-67
2021/07/02 02:07:07;;;;;;;9.73;6.50;;;;;;;15.76;66.82;96764.25;5094556;28;20570;-67
2021/07/02 02:09:32;;;;;;;10.60;6.37;;;;;;;15.76;66.58;96761.63;5094358;28;20640;-67
2021/07/02 02:11:58;;;;;;;7.33;6.00;;;;;;;15.78;66.51;96762.25;5094357;28;20177;-67
2021/07/02 02:14:23;;;;;;;9.50;6.30;;;;;;;15.86;66.08;96754.16;5094106;28;20173;-67
2021/07/02 02:16:49;;;;;;;8.30;6.70;;;;;;;15.48;67.08;96758.03;5094121;28;20201;-67
2021/07/02 02:19:15;;;;;;;9.00;6.60;;;;;;;15.74;66.23;96758.34;5092908;28;20173;-67
2021/07/02 02:21:40;;;;;;;10.90;6.97;;;;;;;15.86;65.75;96748.09;5093123;28;20202;-67
2021/07/02 02:24:06;;;;;;;9.73;7.20;;;;;;;15.73;66.30;96751.44;5093997;28;20600;-67
2021/07/02 02:26:31;;;;;;;10.40;6.53;;;;;;;15.61;66.76;96745.91;5092032;28;20684;-67
2021/07/02 02:28:57;;;;;;;12.03;7.00;;;;;;;15.69;66.35;96753.66;5092978;28;20185;-66
2021/07/02 02:31:23;;;;;;;10.23;7.23;;;;;;;15.62;66.77;96748.34;5093796;28;20706;-68
2021/07/02 02:33:49;;;;;;;10.97;6.27;;;;;;;15.73;66.16;96756.72;5093873;28;20554;-65
2021/07/02 02:36:15;;;;;;;10.03;6.90;;;;;;;15.77;66.01;96755.31;5093688;28;20438;-66
2021/07/02 02:38:40;;;;;;;10.43;6.87;;;;;;;15.52;66.79;96756.59;5093439;28;20184;-67
2021/07/02 02:41:06;;;;;;;15.33;6.50;;;;;;;15.60;66.75;96757.47;5091879;28;20198;-66
2021/07/02 02:43:31;;;;;;;9.67;6.77;;;;;;;15.58;66.26;96754.22;5093357;28;20260;-67
2021/07/02 02:45:57;;;;;;;8.10;6.60;;;;;;;15.58;66.59;96756.84;5093234;28;20288;-67
2021/07/02 02:48:24;;;;;;;10.33;6.63;;;;;;;15.68;66.13;96753.88;5093758;28;20178;-66
2021/07/02 02:50:49;;;;;;;10.33;7.43;;;;;;;15.27;67.32;96755.44;5093439;28;20239;-66
2021/07/02 02:53:15;;;;;;;13.40;7.23;;;;;;;15.36;67.13;96754.31;5093244;28;20420;-66
2021/07/02 02:55:41;;;;;;;10.10;7.30;;;;;;;15.25;67.41;96754.84;5093444;28;20664;-67
2021/07/02 02:58:06;;;;;;;11.93;7.13;;;;;;;15.25;67.56;96752.19;5091463;28;20192;-66
2021/07/02 03:00:32;;;;;;;10.53;7.27;;;;;;;15.43;66.80;96752.50;5093248;28;20178;-66
2021/07/02 03:02:57;;;;;;;13.90;7.90;;;;;;;15.23;67.60;96746.28;5093294;28;20556;-66
2021/07/02 03:05:23;;;;;;;10.63;7.97;;;;;;;15.25;67.60;96753.00;5092934;28;20197;-66
2021/07/02 03:07:52;;;;;;;9.20;6.60;;;;;;;15.09;68.08;96758.56;5092454;28;20200;-66
2021/07/02 03:10:18;;;;;;;9.97;6.30;;;;;;;15.05;68.12;96758.13;5093205;28;20616;-66
2021/07/02 03:12:45;;;;;;;11.70;7.07;;;;;;;15.15;67.68;96758.63;5093070;28;20404;-66
2021/07/02 03:15:11;;;;;;;9.97;6.83;;;;;;;15.16;67.49;96752.31;5092770;28;20468;-66
2021/07/02 03:17:37;;;;;;;9.17;6.30;;;;;;;15.19;67.42;96757.22;5093000;28;20423;-66
2021/07/02 03:20:06;;;;;;;10.93;6.90;;;;;;;15.16;67.49;96760.25;5092949;28;20420;-67
2021/07/02 03:22:31;;;;;;;9.10;7.20;;;;;;;14.99;68.01;96751.00;5092740;28;20982;-67
2021/07/02 03:24:57;;;;;;;9.93;7.73;;;;;;;14.95;68.31;96761.09;5092439;28;20477;-67
2021/07/02 03:27:22;;;;;;;12.03;7.70;;;;;;;14.98;68.50;96762.56;5090472;28;20196;-66
2021/07/02 03:29:48;;;;;;;9.20;7.07;;;;;;;14.88;68.56;96758.41;5093927;28;20234;-67
2021/07/02 03:32:14;;;;;;;8.40;6.97;;;;;;;15.08;67.78;96762.22;5092745;28;20282;-66
2021/07/02 03:34:44;;;;;;;9.60;7.20;;;;;;;15.00;67.98;96761.34;5090888;28;20205;-66
2021/07/02 03:37:10;;;;;;;16.23;6.67;;;;;;;15.21;67.41;96767.59;5090455;28;20178;-66
2021/07/02 03:39:36;;;;;;;10.30;7.90;;;;;;;15.34;66.86;96759.75;5091072;28;20962;-66
2021/07/02 03:42:02;;;;;;;11.80;7.40;;;;;;;15.34;66.73;96765.03;5092676;28;20736;-66
2021/07/02 03:44:27;;;;;;;14.33;7.77;;;;;;;15.41;66.59;96773.00;5081990;28;21578;-66
2021/07/02 03:46:53;;;;;;;10.03;7.87;;;;;;;15.27;67.12;96768.63;5097121;28;20205;-66
2021/07/02 03:49:18;;;;;;;15.67;7.70;;;;;;;15.36;66.96;96770.94;5104753;28;20293;-66
2021/07/02 03:51:44;;;;;;;12.60;7.50;;;;;;;15.33;66.62;96773.16;5098583;28;20230;-66
2021/07/02 03:54:10;;;;;;;10.67;7.47;;;;;;;15.41;66.41;96766.91;5092108;28;20280;-66
2021/07/02 03:56:36;;;;;;;10.30;7.50;;;;;;;15.39;66.80;96768.94;5092887;28;20439;-67
2021/07/02 03:59:02;;;;;;;8.10;7.00;;;;;;;15.45;66.23;96768.13;5093728;28;20185;-66
2021/07/02 04:01:27;;;;;;;8.37;7.03;;;;;;;15.34;66.76;96774.78;5102212;28;20186;-67
2021/07/02 04:03:53;;;;;;;8.40;6.63;;;;;;;15.19;67.31;96773.06;5097844;28;20420;-66
2021/07/02 04:06:18;;;;;;;15.60;8.33;;;;;;;15.26;67.04;96774.91;5098941;28;20198;-66
2021/07/02 04:08:44;;;;;;;9.57;7.73;;;;;;;15.31;66.80;96773.34;5092319;28;20184;-66
2021/07/02 04:11:10;;;;;;;11.07;7.57;;;;;;;15.24;66.96;96772.47;5092126;28;20485;-66
2021/07/02 04:13:35;;;;;;;11.33;7.40;;;;;;;15.36;67.15;96772.78;5092344;28;20656;-66
2021/07/02 04:16:01;;;;;;;11.83;7.50;;;;;;;15.45;66.81;96774.25;5084056;28;20205;-66
2021/07/02 04:18:26;;;;;;;11.47;7.50;;;;;;;15.35;67.21;96764.03;5091003;28;20193;-67
2021/07/02 04:20:52;;;;;;;9.27;6.90;;;;;;;15.33;67.09;96776.59;5091547;28;20227;-67
2021/07/02 04:23:17;;;;;;;9.70;7.23;;;;;;;15.48;66.52;96773.03;5091186;28;20652;-66
2021/07/02 04:25:43;;;;;;;10.57;7.20;;;;;;;15.51;66.68;96778.75;5091900;28;20296;-67
2021/07/02 04:28:09;;;;;;;15.13;7.93;;;;;;;15.58;66.06;96777.97;5091570;28;20625;-67
2021/07/02 04:30:34;;;;;;;14.70;7.20;;;;;;;15.79;65.59;96785.81;5091554;28;20178;-67
2021/07/02 04:33:00;;;;;;;12.13;7.80;;;;;;;15.88;65.23;96783.84;5091550;28;20189;-66
2021/07/02 04:35:26;;;;;;;11.20;7.77;;;;;;;15.84;65.38;96787.06;5082679;28;20620;-67
2021/07/02 04:37:51;;;;;;;11.00;8.00;;;;;;;15.70;65.87;96781.72;5090918;28;20197;-66
2021/07/02 04:40:17;;;;;;;10.30;8.00;;;;;;;16.21;64.26;96787.66;5091236;28;20189;-67
2021/07/02 04:42:44;;;;;;;11.43;8.70;;;;;;;16.23;63.97;96791.72;5091798;28;20206;-67
2021/07/02 04:45:10;;;;;;;12.70;7.83;;;;;;;16.18;64.19;96788.03;5089977;28;20229;-66
2021/07/02 04:47:36;;;;;;;9.60;7.47;;;;;;;16.16;64.00;96779.47;5090223;28;20432;-65
2021/07/02 04:50:06;;;;;;;10.93;8.00;;;;;;;16.18;64.17;96788.88;5091208;28;20418;-66
2021/07/02 04:52:32;;;;;;;15.63;8.43;;;;;;;16.48;63.46;96793.00;5091368;28;20177;-67
2021/07/02 04:54:57;;;;;;;12.33;8.33;;;;;;;16.36;63.76;96793.59;5091433;28;20441;-67
2021/07/02 04:57:23;;;;;;;10.23;7.80;;;;;;;16.48;63.19;96790.38;5091289;28;20180;-65
2021/07/02 04:59:50;;;;;;;11.60;9.00;;;;;;;16.40;63.55;96796.66;5091365;28;20174;-68
2021/07/02 05:02:17;;;;;;;10.33;7.90;;;;;;;16.27;63.75;96792.97;5090910;28;20197;-65
2021/07/02 05:04:42;;;;;;;12.80;8.93;;;;;;;16.32;63.59;96796.84;5090847;28;20447;-67
2021/07/02 05:07:08;;;;;;;10.87;7.97;;;;;;;16.16;64.29;96795.34;5090802;28;20454;-67
2021/07/02 05:09:35;;;;;;;10.83;7.87;;;;;;;16.24;64.22;96788.06;5091316;28;20174;-67
2021/07/02 05:12:02;;;;;;;10.37;7.00;;;;;;;16.35;63.33;96799.91;5091231;28;20177;-66
2021/07/02 05:14:28;;;;;;;10.33;7.43;;;;;;;16.50;62.91;96791.78;5089784;28;20923;-67
2021/07/02 05:16:54;;;;;;;12.70;7.03;;;;;;;16.36;63.31;96795.41;5090824;28;20442;-65
2021/07/02 05:19:19;;;;;;;7.97;6.83;;;;;;;16.05;64.03;96804.69;5091200;28;20181;-67
2021/07/02 05:21:45;;;;;;;15.93;8.50;;;;;;;16.57;62.91;96794.44;5090696;28;20197;-66
2021/07/02 05:24:10;;;;;;;12.13;7.07;;;;;;;16.55;62.49;96799.94;5089310;28;20603;-67
2021/07/02 05:26:36;;;;;;;8.37;6.70;;;;;;;16.80;62.04;96803.84;5090911;28;20205;-67
2021/07/02 05:29:02;;;;;;;13.03;8.20;;;;;;;16.85;62.07;96804.06;5093555;28;20663;-66
2021/07/02 05:31:27;;;;;;;9.20;7.67;;;;;;;17.11;61.33;96811.22;5094797;28;20177;-67
2021/07/02 05:33:53;;;;;;;10.90;8.60;;;;;;;16.71;61.99;96797.91;5094744;28;20415;-66
2021/07/02 05:36:19;;;;;;;8.63;7.20;;;;;;;16.80;61.63;96806.50;5094613;28;20383;-67
2021/07/02 05:38:45;;;;;;;8.70;6.97;;;;;;;16.84;61.38;96799.78;5094778;28;20197;-67
2021/07/02 05:41:12;;;;;;;9.47;6.80;;;;;;;17.21;61.20;96810.81;5094946;28;20447;-67
2021/07/02 05:43:37;;;;;;;11.50;6.63;;;;;;;17.20;60.68;96811.84;5094940;28;20539;-67
2021/07/02 05:46:04;;;;;;;7.60;6.53;;;;;;;17.15;60.54;96811.63;5083915;28;20478;-67
2021/07/02 05:48:32;;;;;;;9.23;6.50;;;;;;;17.31;60.33;96810.41;5094924;28;20177;-67
2021/07/02 05:50:57;;;;;;;10.40;6.90;;;;;;;17.62;59.33;96809.78;5095093;28;20447;-67
2021/07/02 05:53:23;;;;;;;8.43;6.70;;;;;;;17.89;58.47;96807.06;5095107;28;20415;-67
2021/07/02 05:55:49;;;;;;;17.77;6.90;;;;;;;18.16;57.59;96809.63;5095617;28;20663;-67
2021/07/02 05:58:14;;;;;;;7.10;6.40;;;;;;;18.22;57.64;96811.44;5086059;28;20185;-67
2021/07/02 06:00:41;;;;;;;9.30;6.80;;;;;;;17.68;59.20;96815.25;5095778;28;20186;-66
2021/07/02 06:03:06;;;;;;;9.10;7.13;;;;;;;18.15;57.65;96810.63;5094396;28;20660;-67
2021/07/02 06:05:34;;;;;;;9.03;6.53;;;;;;;18.60;56.52;96809.81;5094731;28;20423;-67
2021/07/02 06:08:00;;;;;;;8.47;6.60;;;;;;;18.50;56.99;96807.63;5095087;28;20201;-66
2021/07/02 06:10:26;;;;;;;6.30;5.70;;;;;;;18.90;55.38;96803.09;5087258;28;20416;-67
2021/07/02 06:12:52;;;;;;;8.87;6.90;;;;;;;18.80;56.03;96809.69;5094606;28;20412;-66
2021/07/02 06:15:18;;;;;;;7.67;6.80;;;;;;;19.23;54.86;96818.00;5093814;28;20202;-68
2021/07/02 06:17:45;;;;;;;11.47;6.40;;;;;;;19.04;55.35;96820.56;5094665;28;20504;-69
2021/07/02 06:20:12;;;;;;;10.30;6.70;;;;;;;19.24;54.52;96825.72;5094549;28;20903;-69
2021/07/02 06:22:38;;;;;;;6.67;5.97;;;;;;;19.44;54.17;96820.25;5094463;28;20459;-69
2021/07/02 06:25:05;;;;;;;9.80;6.70;;;;;;;19.51;54.06;96824.72;5094156;28;20448;-68
2021/07/02 06:27:31;;;;;;;8.63;6.00;;;;;;;19.34;54.07;96825.25;5086843;28;20435;-68
2021/07/02 06:29:56;;;;;;;7.20;6.50;;;;;;;19.61;53.61;96825.00;5094633;28;20419;-68
2021/07/02 06:32:22;;;;;;;7.87;6.27;;;;;;;19.91;52.92;96827.00;5094670;28;20181;-70
2021/07/02 06:34:48;;;;;;;6.70;6.10;;;;;;;20.45;51.08;96829.00;5094329;28;20198;-69
2021/07/02 06:37:13;;;;;;;7.47;6.40;;;;;;;20.07;52.29;96836.22;5092184;28;20178;-69
2021/07/02 06:39:39;;;;;;;10.00;5.97;;;;;;;20.12;51.19;96828.38;5092317;28;20200;-68
2021/07/02 06:42:05;;;;;;;9.00;6.20;;;;;;;20.80;49.73;96839.00;5091277;28;20205;-67
2021/07/02 06:44:31;;;;;;;9.07;7.50;;;;;;;20.44;50.84;96840.69;5093586;28;20256;-68
2021/07/02 06:46:56;;;;;;;6.37;5.63;;;;;;;20.99;49.36;96843.25;5093854;28;20659;-69
2021/07/02 06:49:22;;;;;;;6.50;5.90;;;;;;;20.83;50.45;96833.22;5093701;28;20177;-68
2021/07/02 06:51:48;;;;;;;9.70;6.60;;;;;;;20.99;49.71;96839.75;5094158;28;20212;-68
2021/07/02 06:54:13;;;;;;;6.33;5.73;;;;;;;20.60;50.70;96837.41;5093285;28;20193;-68
2021/07/02 06:57:00;;;;;;;7.80;5.30;;;;;;;20.71;50.39;96839.31;5089213;28;20210;-69
2021/07/02 06:59:24;;;;;;;5.90;5.30;;;;;;;20.70;50.67;96843.00;5093237;28;20703;-68
2021/07/02 07:01:50;;;;;;;9.23;5.40;;;;;;;20.82;50.59;96839.59;5093381;28;20538;-67
2021/07/02 07:04:15;;;;;;;8.30;6.10;;;;;;;20.66;49.29;96844.50;5093405;28;20258;-70
2021/07/02 07:06:41;;;;;;;7.07;5.80;;;;;;;20.98;48.96;96849.59;5092104;28;20277;-70
2021/07/02 07:09:07;;;;;;;7.70;6.47;;;;;;;21.22;48.15;96848.84;5093602;28;20186;-69
2021/07/02 07:11:32;;;;;;;7.03;5.80;;;;;;;20.47;49.66;96850.88;5093570;28;20235;-67
2021/07/02 07:13:58;;;;;;;9.30;5.70;;;;;;;20.58;48.73;96847.47;5093517;28;20260;-70
2021/07/02 07:16:23;;;;;;;6.50;5.90;;;;;;;20.50;48.78;96835.28;5093747;28;20220;-68
2021/07/02 07:18:49;;;;;;;12.67;5.83;;;;;;;21.23;46.23;96848.63;5094444;28;20178;-68
2021/07/02 07:21:14;;;;;;;7.10;6.10;;;;;;;20.70;48.53;96850.97;5096524;28;20288;-66
2021/07/02 07:23:40;;;;;;;6.20;5.47;;;;;;;20.45;47.83;96850.28;5093531;28;20636;-67
2021/07/02 07:26:06;;;;;;;6.60;5.70;;;;;;;20.64;47.32;96851.91;5094256;28;20201;-66
2021/07/02 07:28:31;;;;;;;5.40;4.90;;;;;;;21.36;46.21;96854.78;5085894;28;20189;-66
2021/07/02 07:30:57;;;;;;;7.63;6.20;;;;;;;21.39;46.59;96859.66;5093745;28;20182;-67
2021/07/02 07:33:22;;;;;;;6.87;5.77;;;;;;;21.16;45.48;96855.91;5093068;28;20238;-68
2021/07/02 07:35:49;;;;;;;7.03;5.07;;;;;;;21.11;45.42;96853.09;5093335;28;20825;-67
2021/07/02 07:38:17;;;;;;;6.77;5.00;;;;;;;20.75;45.28;96849.53;5093018;28;20193;-68
2021/07/02 07:40:43;;;;;;;6.20;5.10;;;;;;;21.01;45.23;96848.31;5091714;28;20424;-68
2021/07/02 07:43:08;;;;;;;6.80;5.30;;;;;;;20.63;45.45;96852.94;5092345;28;20478;-68
2021/07/02 07:45:34;;;;;;;6.47;5.33;;;;;;;20.80;45.08;96844.31;5093119;28;20198;-67
2021/07/02 07:48:00;;;;;;;7.90;5.20;;;;;;;20.71;45.09;96849.94;5093706;28;20177;-68
2021/07/02 07:50:27;;;;;;;6.63;4.60;;;;;;;21.56;43.98;96855.25;5085048;28;20314;-68
2021/07/02 07:52:58;;;;;;;5.87;4.57;;;;;;;21.57;44.27;96851.53;5092587;28;20174;-67
2021/07/02 07:55:26;;;;;;;7.27;5.07;;;;;;;21.97;43.42;96849.22;5092604;28;20519;-67
2021/07/02 07:57:51;;;;;;;6.07;5.10;;;;;;;22.66;42.42;96857.31;5083593;28;20499;-66
2021/07/02 08:00:18;;;;;;;5.60;4.90;;;;;;;21.34;43.51;96857.69;5074398;28;20459;-67
2021/07/02 08:02:44;;;;;;;7.10;5.13;;;;;;;21.94;43.23;96850.50;5092514;28;20692;-66
2021/07/02 08:05:11;;;;;;;6.00;5.17;;;;;;;21.40;44.08;96859.41;5095794;28;20552;-67
2021/07/02 08:07:37;;;;;;;5.90;5.27;;;;;;;21.30;44.49;96864.50;5093953;28;20416;-66
2021/07/02 08:10:10;;;;;;;6.13;5.10;;;;;;;20.87;45.16;96875.16;5103303;28;20455;-67
2021/07/02 08:12:36;;;;;;;5.63;5.10;;;;;;;20.71;45.89;96871.25;5102866;28;20435;-66
2021/07/02 08:15:03;;;;;;;6.60;5.53;;;;;;;20.66;45.12;96864.97;5094787;28;20431;-66
2021/07/02 08:17:29;;;;;;;6.33;4.83;;;;;;;20.72;44.76;96877.41;5092926;28;20749;-66
2021/07/02 08:19:56;;;;;;;5.67;5.13;;;;;;;21.32;44.27;96876.53;5093820;28;20420;-67
2021/07/02 08:22:26;;;;;;;5.57;5.07;;;;;;;22.40;41.88;96856.00;5096362;28;20463;-67
2021/07/02 08:24:52;;;;;;;5.03;4.53;;;;;;;22.77;41.38;96855.66;5104883;28;20479;-67
2021/07/02 08:27:18;;;;;;;6.37;5.13;;;;;;;21.86;43.26;96865.00;5096717;28;20493;-67
2021/07/02 08:29:44;;;;;;;5.93;4.67;;;;;;;21.89;42.13;96864.56;5099148;28;20189;-67
2021/07/02 08:32:10;;;;;;;6.10;4.80;;;;;;;21.63;42.61;96871.16;5093277;28;20437;-67
2021/07/02 08:34:35;;;;;;;6.33;4.70;;;;;;;21.40;43.09;96871.94;5092265;28;20524;-67
2021/07/02 08:37:01;;;;;;;6.60;5.03;;;;;;;21.52;42.54;96870.09;5092076;28;20209;-67
2021/07/02 08:39:27;;;;;;;7.40;5.67;;;;;;;21.26;43.31;96873.97;5091863;28;20571;-66
2021/07/02 08:41:52;;;;;;;6.57;4.80;;;;;;;21.62;42.48;96870.34;5092255;28;20455;-67
2021/07/02 08:44:18;;;;;;;6.50;5.00;;;;;;;21.82;42.22;96874.50;5091894;28;20187;-67
2021/07/02 08:46:49;;;;;;;4.73;4.33;;;;;;;21.56;42.41;96881.91;5091142;28;20585;-65
2021/07/02 08:49:15;;;;;;;7.37;5.33;;;;;;;22.28;41.59;96866.69;5092093;28;20181;-66
2021/07/02 08:51:41;;;;;;;6.80;5.00;;;;;;;21.83;41.72;96876.13;5090989;28;20469;-68
2021/07/02 08:54:07;;;;;;;5.17;4.67;;;;;;;20.84;42.52;96886.28;5092046;28;20918;-68
2021/07/02 08:56:33;;;;;;;5.17;4.67;;;;;;;20.71;42.63;96886.44;5088946;28;20243;-68
2021/07/02 08:58:58;;;;;;;6.10;5.50;;;;;;;21.49;42.20;96886.53;5089109;28;20423;-67
2021/07/02 09:01:42;;;;;;;5.50;4.90;;;;;;;22.41;40.50;96873.66;5093107;28;20660;-66
2021/07/02 09:04:15;;;;;;;5.27;4.73;;;;;;;22.72;39.48;96871.56;5093683;28;20178;-67
2021/07/02 09:06:41;;;;;;;6.33;4.60;;;;;;;22.44;36.73;96880.38;5093251;28;20430;-67
2021/07/02 09:09:09;;;;;;;4.57;3.90;;;;;;;21.90;38.30;96881.34;5093450;28;20424;-66
2021/07/02 09:11:35;;;;;;;4.83;4.13;;;;;;;22.86;38.02;96874.78;5093803;28;20511;-67
2021/07/02 09:14:07;;;;;;;7.80;4.70;;;;;;;22.98;38.58;96874.69;5092400;28;20487;-66
2021/07/02 09:16:38;;;;;;;10.60;4.93;;;;;;;23.03;38.52;96882.81;5092507;28;20523;-67
2021/07/02 09:19:29;;;;;;;5.53;4.90;;;;;;;22.73;38.48;96883.88;5091857;28;20443;-67
2021/07/02 09:22:15;;;;;;;8.67;5.37;;;;;;;23.16;37.87;96882.53;5095379;28;20455;-67
2021/07/02 09:24:43;;;;;;;6.23;4.37;;;;;;;22.99;37.53;96876.31;5092355;28;20427;-67
2021/07/02 09:27:37;;;;;;;7.07;4.87;;;;;;;22.88;35.39;96879.88;5084967;28;20439;-67
2021/07/02 09:30:08;;;;;;;5.00;4.50;;;;;;;22.79;36.02;96877.59;5092425;28;20428;-67
2021/07/02 09:32:42;;;;;;;5.37;3.97;;;;;;;22.87;36.77;96881.75;5091021;28;20427;-67
2021/07/02 09:35:09;;;;;;;6.50;4.30;;;;;;;22.41;37.93;96876.34;5090367;28;20747;-67
2021/07/02 09:37:43;;;;;;;5.43;4.93;;;;;;;23.08;37.99;96872.19;5092125;28;20499;-69
2021/07/02 09:40:23;;;;;;;6.03;4.83;;;;;;;23.42;36.99;96877.63;5091403;28;20474;-67
2021/07/02 09:43:04;;;;;;;4.90;4.40;;;;;;;23.42;36.88;96877.63;5091739;28;20572;-67
2021/07/02 09:45:31;;;;;;;5.43;4.60;;;;;;;22.98;37.10;96886.22;5092111;28;20530;-68
2021/07/02 09:48:05;;;;;;;5.30;4.80;;;;;;;23.08;36.99;96885.56;5090553;28;20422;-66
2021/07/02 09:50:31;;;;;;;5.77;4.90;;;;;;;24.10;35.09;96884.78;5084340;28;20531;-68
2021/07/02 09:53:03;;;;;;;5.00;4.23;;;;;;;24.22;34.31;96869.41;5090476;28;20767;-66
2021/07/02 09:55:31;;;;;;;5.17;4.63;;;;;;;24.11;34.62;96889.09;5090380;28;20205;-67
2021/07/02 09:58:04;;;;;;;5.40;4.17;;;;;;;23.68;35.05;96883.38;5084208;28;20412;-67
2021/07/02 10:00:32;;;;;;;6.10;4.23;;;;;;;22.91;37.62;96890.88;5091563;28;20430;-67
2021/07/02 10:02:59;;;;;;;5.30;4.30;;;;;;;22.48;37.21;96892.22;5090933;28;20504;-66
2021/07/02 10:05:26;;;;;;;7.73;4.63;;;;;;;22.67;36.45;96898.19;5090788;28;20431;-66
2021/07/02 10:08:09;;;;;;;4.53;4.10;;;;;;;22.58;36.14;96897.75;5090456;28;20422;-67
2021/07/02 10:10:35;;;;;;;5.47;4.10;;;;;;;23.24;35.16;96886.69;5091769;28;20457;-67
2021/07/02 10:13:01;;;;;;;4.33;3.87;;;;;;;23.75;34.15;96880.53;5091717;28;20416;-67
2021/07/02 10:15:27;;;;;;;5.00;4.50;;;;;;;24.04;34.03;96883.91;5090866;28;20281;-66
2021/07/02 10:17:58;;;;;;;4.80;4.17;;;;;;;25.01;33.23;96882.63;5094355;28;20561;-65
2021/07/02 10:20:26;;;;;;;5.93;4.50;;;;;;;23.86;34.67;96884.97;5095055;28;20438;-66
2021/07/02 10:22:55;;;;;;;5.60;4.60;;;;;;;23.62;33.95;96884.34;5092848;28;20459;-66
2021/07/02 10:25:21;;;;;;;4.60;3.53;;;;;;;24.94;31.23;96880.16;5094075;28;20456;-67
2021/07/02 10:27:47;;;;;;;9.37;5.00;;;;;;;25.20;31.33;96880.41;5085436;28;20511;-67
2021/07/02 10:30:12;;;;;;;4.97;4.47;;;;;;;24.83;32.94;96881.09;5092425;28;20178;-67
2021/07/02 10:32:39;;;;;;;4.67;4.23;;;;;;;24.80;33.14;96870.91;5094585;28;20930;-67
2021/07/02 10:35:07;;;;;;;5.27;4.77;;;;;;;23.68;34.93;96880.69;5092668;28;20205;-67
2021/07/02 10:37:33;;;;;;;6.30;5.23;;;;;;;23.27;36.06;96888.06;5094437;28;20435;-68
2021/07/02 10:40:00;;;;;;;5.03;4.53;;;;;;;23.71;35.20;96882.84;5094110;28;20446;-68
2021/07/02 10:42:26;;;;;;;6.20;4.50;;;;;;;24.32;34.83;96881.31;5084593;28;20989;-67
2021/07/02 10:44:52;;;;;;;6.90;4.57;;;;;;;24.16;33.95;96883.78;5093746;28;20434;-68
2021/07/02 10:47:18;;;;;;;5.87;4.93;;;;;;;25.48;31.17;96875.81;5094154;28;20420;-68
2021/07/02 10:49:44;;;;;;;8.40;4.00;;;;;;;25.30;31.81;96876.97;5094344;28;20657;-67
2021/07/02 10:52:28;;;;;;;5.80;4.50;;;;;;;23.82;34.19;96878.47;5094811;28;20189;-67
2021/07/02 10:54:56;;;;;;;6.13;4.83;;;;;;;23.54;34.02;96882.88;5093345;28;20211;-68
2021/07/02 10:57:23;;;;;;;5.37;4.83;;;;;;;24.12;32.77;96880.00;5092866;28;20416;-67
2021/07/02 10:59:49;;;;;;;4.73;4.10;;;;;;;24.67;32.21;96877.41;5094286;28;20485;-66
2021/07/02 11:02:24;;;;;;;4.83;4.10;;;;;;;24.83;31.75;96881.09;5092297;28;20467;-68
2021/07/02 11:04:55;;;;;;;7.43;4.47;;;;;;;25.24;31.03;96883.38;5093332;28;20192;-67
2021/07/02 11:07:27;;;;;;;4.80;4.33;;;;;;;24.85;31.68;96881.66;5092159;28;20438;-67
2021/07/02 11:09:55;;;;;;;4.93;4.43;;;;;;;25.46;30.37;96877.94;5093771;28;20925;-67
2021/07/02 11:12:31;;;;;;;5.40;3.23;;;;;;;24.76;30.67;96878.63;5097109;28;20438;-66
2021/07/02 11:14:58;;;;;;;6.70;4.03;;;;;;;25.46;30.41;96883.31;5093608;28;20420;-67
2021/07/02 11:17:26;;;;;;;5.00;3.63;;;;;;;25.40;31.15;96879.75;5093252;28;20431;-66
2021/07/02 11:20:04;;;;;;;4.40;4.00;;;;;;;25.82;29.91;96874.72;5093062;28;20440;-66
2021/07/02 11:22:32;;;;;;;6.53;4.00;;;;;;;25.27;30.26;96875.63;5091648;28;20499;-67
2021/07/02 11:26:01;;;;;;;5.20;3.97;;;;;;;25.55;29.78;96878.28;5092615;28;20458;-67
2021/07/02 11:28:21;;;;;;;5.13;4.57;;;;;;;25.55;31.78;96876.41;5087478;28;20507;-67
2021/07/02 11:30:48;;;;;;;6.00;4.83;;;;;;;25.44;32.47;96885.44;5094356;28;20428;-68